sensor_id;sensor_type;location;lat;lon;timestamp;P1;durP1;ratioP1;P2;durP2;ratioP2
21046;SDS011;10682;50.874;3.656;2023-08-06T00:00:00;22.20;;;10.20;;
21046;SDS011;10682;50.874;3.656;2023-08-06T00:02:27;27.25;;;10.52;;
21046;SDS011;10682;50.874;3.656;2023-08-06T00:04:54;26.70;;;11.63;;
21046;SDS011;10682;50.874;3.656;2023-08-06T00:07:21;22.90;;;10.00;;
21046;SDS011;10682;50.874;3.656;2023-08-06T00:09:49;25.33;;;9.88;;
21046;SDS011;10682;50.874;3.656;2023-08-06T00:12:16;17.95;;;9.45;;
21046;SDS011;10682;50.874;3.656;2023-08-06T00:14:43;24.73;;;8.98;;
21046;SDS011;10682;50.874;3.656;2023-08-06T00:17:10;19.25;;;8.85;;
21046;SDS011;10682;50.874;3.656;2023-08-06T00:19:37;17.38;;;7.60;;
21046;SDS011;10682;50.874;3.656;2023-08-06T00:22:04;14.88;;;6.90;;
21046;SDS011;10682;50.874;3.656;2023-08-06T00:24:32;10.82;;;5.32;;
21046;SDS011;10682;50.874;3.656;2023-08-06T00:26:59;8.32;;;4.68;;
21046;SDS011;10682;50.874;3.656;2023-08-06T00:29:26;5.75;;;3.17;;
21046;SDS011;10682;50.874;3.656;2023-08-06T00:31:53;11.90;;;2.80;;
21046;SDS011;10682;50.874;3.656;2023-08-06T00:34:21;7.03;;;2.15;;
21046;SDS011;10682;50.874;3.656;2023-08-06T00:36:48;8.82;;;2.00;;
21046;SDS011;10682;50.874;3.656;2023-08-06T00:39:15;7.03;;;1.65;;
21046;SDS011;10682;50.874;3.656;2023-08-06T00:41:42;8.67;;;1.60;;
21046;SDS011;10682;50.874;3.656;2023-08-06T00:44:10;6.53;;;1.40;;
21046;SDS011;10682;50.874;3.656;2023-08-06T00:46:37;6.90;;;1.35;;
21046;SDS011;10682;50.874;3.656;2023-08-06T00:49:05;7.43;;;1.25;;
21046;SDS011;10682;50.874;3.656;2023-08-06T00:51:32;7.77;;;1.30;;
21046;SDS011;10682;50.874;3.656;2023-08-06T00:54:01;8.57;;;1.75;;
21046;SDS011;10682;50.874;3.656;2023-08-06T00:56:28;8.70;;;1.40;;
21046;SDS011;10682;50.874;3.656;2023-08-06T00:58:55;5.47;;;1.10;;
21046;SDS011;10682;50.874;3.656;2023-08-06T01:01:22;6.27;;;1.33;;
21046;SDS011;10682;50.874;3.656;2023-08-06T01:03:50;3.60;;;1.30;;
21046;SDS011;10682;50.874;3.656;2023-08-06T01:06:17;7.70;;;1.80;;
21046;SDS011;10682;50.874;3.656;2023-08-06T01:09:28;13.47;;;1.80;;
21046;SDS011;10682;50.874;3.656;2023-08-06T01:15:05;4.70;;;2.00;;
21046;SDS011;10682;50.874;3.656;2023-08-06T01:17:45;11.10;;;1.90;;
21046;SDS011;10682;50.874;3.656;2023-08-06T01:20:12;6.43;;;1.97;;
21046;SDS011;10682;50.874;3.656;2023-08-06T01:22:41;10.90;;;2.00;;
21046;SDS011;10682;50.874;3.656;2023-08-06T01:25:08;7.47;;;1.53;;
21046;SDS011;10682;50.874;3.656;2023-08-06T01:32:46;5.35;;;2.17;;
21046;SDS011;10682;50.874;3.656;2023-08-06T01:35:17;3.95;;;1.38;;
21046;SDS011;10682;50.874;3.656;2023-08-06T01:37:46;6.25;;;1.55;;
21046;SDS011;10682;50.874;3.656;2023-08-06T01:40:14;2.97;;;1.40;;
21046;SDS011;10682;50.874;3.656;2023-08-06T01:42:41;3.10;;;1.52;;
21046;SDS011;10682;50.874;3.656;2023-08-06T01:45:08;2.20;;;1.25;;
21046;SDS011;10682;50.874;3.656;2023-08-06T01:47:36;2.50;;;0.93;;
21046;SDS011;10682;50.874;3.656;2023-08-06T01:50:03;1.80;;;0.90;;
21046;SDS011;10682;50.874;3.656;2023-08-06T01:52:30;2.70;;;0.80;;
21046;SDS011;10682;50.874;3.656;2023-08-06T01:54:58;2.13;;;0.95;;
21046;SDS011;10682;50.874;3.656;2023-08-06T01:57:25;7.10;;;1.20;;
21046;SDS011;10682;50.874;3.656;2023-08-06T01:59:53;2.78;;;1.10;;
21046;SDS011;10682;50.874;3.656;2023-08-06T02:02:20;4.43;;;1.60;;
21046;SDS011;10682;50.874;3.656;2023-08-06T02:04:47;5.30;;;1.50;;
21046;SDS011;10682;50.874;3.656;2023-08-06T02:07:14;2.07;;;1.40;;
21046;SDS011;10682;50.874;3.656;2023-08-06T02:09:41;4.97;;;1.73;;
21046;SDS011;10682;50.874;3.656;2023-08-06T02:12:08;7.03;;;1.60;;
21046;SDS011;10682;50.874;3.656;2023-08-06T02:14:35;5.32;;;2.22;;
21046;SDS011;10682;50.874;3.656;2023-08-06T02:17:03;7.25;;;2.15;;
21046;SDS011;10682;50.874;3.656;2023-08-06T02:19:30;10.40;;;2.28;;
21046;SDS011;10682;50.874;3.656;2023-08-06T02:21:57;5.28;;;2.20;;
21046;SDS011;10682;50.874;3.656;2023-08-06T02:24:24;10.23;;;2.50;;
21046;SDS011;10682;50.874;3.656;2023-08-06T02:26:53;6.40;;;1.90;;
21046;SDS011;10682;50.874;3.656;2023-08-06T02:29:22;3.53;;;1.70;;
21046;SDS011;10682;50.874;3.656;2023-08-06T02:31:49;4.57;;;2.47;;
21046;SDS011;10682;50.874;3.656;2023-08-06T02:34:16;4.37;;;2.17;;
21046;SDS011;10682;50.874;3.656;2023-08-06T02:36:44;6.05;;;2.60;;
21046;SDS011;10682;50.874;3.656;2023-08-06T02:39:11;14.52;;;3.35;;
21046;SDS011;10682;50.874;3.656;2023-08-06T02:41:38;7.43;;;3.28;;
21046;SDS011;10682;50.874;3.656;2023-08-06T02:44:05;11.55;;;3.38;;
21046;SDS011;10682;50.874;3.656;2023-08-06T02:46:32;8.33;;;3.27;;
21046;SDS011;10682;50.874;3.656;2023-08-06T02:48:59;8.55;;;3.92;;
21046;SDS011;10682;50.874;3.656;2023-08-06T02:51:26;10.55;;;3.72;;
21046;SDS011;10682;50.874;3.656;2023-08-06T02:53:53;9.73;;;3.53;;
21046;SDS011;10682;50.874;3.656;2023-08-06T02:56:20;9.20;;;3.47;;
21046;SDS011;10682;50.874;3.656;2023-08-06T02:58:47;8.25;;;4.10;;
21046;SDS011;10682;50.874;3.656;2023-08-06T03:01:14;14.23;;;4.40;;
21046;SDS011;10682;50.874;3.656;2023-08-06T03:03:41;13.65;;;4.97;;
21046;SDS011;10682;50.874;3.656;2023-08-06T03:06:08;14.00;;;4.80;;
21046;SDS011;10682;50.874;3.656;2023-08-06T03:08:36;14.68;;;5.60;;
21046;SDS011;10682;50.874;3.656;2023-08-06T03:11:03;18.15;;;6.10;;
21046;SDS011;10682;50.874;3.656;2023-08-06T03:13:30;15.20;;;5.93;;
21046;SDS011;10682;50.874;3.656;2023-08-06T03:15:58;13.73;;;6.10;;
21046;SDS011;10682;50.874;3.656;2023-08-06T03:18:26;12.77;;;5.97;;
21046;SDS011;10682;50.874;3.656;2023-08-06T03:20:53;13.35;;;5.93;;
21046;SDS011;10682;50.874;3.656;2023-08-06T03:23:21;15.23;;;6.15;;
21046;SDS011;10682;50.874;3.656;2023-08-06T03:25:48;13.50;;;5.95;;
21046;SDS011;10682;50.874;3.656;2023-08-06T03:28:24;11.65;;;5.68;;
21046;SDS011;10682;50.874;3.656;2023-08-06T03:31:01;14.40;;;6.10;;
21046;SDS011;10682;50.874;3.656;2023-08-06T03:33:29;20.60;;;6.70;;
21046;SDS011;10682;50.874;3.656;2023-08-06T03:35:57;18.20;;;6.32;;
21046;SDS011;10682;50.874;3.656;2023-08-06T03:38:24;21.08;;;6.88;;
21046;SDS011;10682;50.874;3.656;2023-08-06T03:40:51;24.33;;;6.70;;
21046;SDS011;10682;50.874;3.656;2023-08-06T03:43:18;23.25;;;6.63;;
21046;SDS011;10682;50.874;3.656;2023-08-06T03:45:45;22.17;;;6.45;;
21046;SDS011;10682;50.874;3.656;2023-08-06T03:48:12;20.15;;;6.10;;
21046;SDS011;10682;50.874;3.656;2023-08-06T03:50:39;17.77;;;6.22;;
21046;SDS011;10682;50.874;3.656;2023-08-06T03:53:07;21.25;;;5.55;;
21046;SDS011;10682;50.874;3.656;2023-08-06T03:55:34;15.53;;;5.27;;
21046;SDS011;10682;50.874;3.656;2023-08-06T03:58:01;16.13;;;5.43;;
21046;SDS011;10682;50.874;3.656;2023-08-06T04:00:28;17.87;;;4.80;;
21046;SDS011;10682;50.874;3.656;2023-08-06T04:02:55;16.30;;;4.70;;
21046;SDS011;10682;50.874;3.656;2023-08-06T04:05:22;14.55;;;4.70;;
21046;SDS011;10682;50.874;3.656;2023-08-06T04:07:49;12.57;;;3.60;;
21046;SDS011;10682;50.874;3.656;2023-08-06T04:10:16;16.40;;;4.03;;
21046;SDS011;10682;50.874;3.656;2023-08-06T04:12:44;18.37;;;3.80;;
21046;SDS011;10682;50.874;3.656;2023-08-06T04:15:11;14.30;;;3.70;;
21046;SDS011;10682;50.874;3.656;2023-08-06T04:17:38;12.90;;;3.60;;
21046;SDS011;10682;50.874;3.656;2023-08-06T04:20:05;15.13;;;3.47;;
21046;SDS011;10682;50.874;3.656;2023-08-06T04:22:33;18.03;;;3.53;;
21046;SDS011;10682;50.874;3.656;2023-08-06T04:25:00;13.27;;;3.35;;
21046;SDS011;10682;50.874;3.656;2023-08-06T04:27:27;13.67;;;3.53;;
21046;SDS011;10682;50.874;3.656;2023-08-06T04:29:55;13.93;;;3.20;;
21046;SDS011;10682;50.874;3.656;2023-08-06T04:32:22;9.80;;;3.07;;
21046;SDS011;10682;50.874;3.656;2023-08-06T04:34:49;15.43;;;3.43;;
21046;SDS011;10682;50.874;3.656;2023-08-06T04:37:16;14.40;;;3.60;;
21046;SDS011;10682;50.874;3.656;2023-08-06T04:39:43;11.53;;;2.70;;
21046;SDS011;10682;50.874;3.656;2023-08-06T04:42:10;13.70;;;3.37;;
21046;SDS011;10682;50.874;3.656;2023-08-06T04:44:38;13.83;;;3.73;;
21046;SDS011;10682;50.874;3.656;2023-08-06T04:47:05;13.70;;;3.03;;
21046;SDS011;10682;50.874;3.656;2023-08-06T04:49:32;13.90;;;3.10;;
21046;SDS011;10682;50.874;3.656;2023-08-06T04:51:59;11.53;;;3.00;;
21046;SDS011;10682;50.874;3.656;2023-08-06T04:56:56;13.90;;;3.77;;
21046;SDS011;10682;50.874;3.656;2023-08-06T04:59:23;16.47;;;3.73;;
21046;SDS011;10682;50.874;3.656;2023-08-06T05:01:50;15.13;;;3.80;;
21046;SDS011;10682;50.874;3.656;2023-08-06T05:04:18;13.53;;;4.00;;
21046;SDS011;10682;50.874;3.656;2023-08-06T05:06:45;11.50;;;4.10;;
21046;SDS011;10682;50.874;3.656;2023-08-06T05:09:12;16.47;;;4.00;;
21046;SDS011;10682;50.874;3.656;2023-08-06T05:11:39;10.87;;;4.27;;
21046;SDS011;10682;50.874;3.656;2023-08-06T05:14:06;15.63;;;4.63;;
21046;SDS011;10682;50.874;3.656;2023-08-06T05:16:34;14.43;;;5.03;;
21046;SDS011;10682;50.874;3.656;2023-08-06T05:19:01;19.90;;;4.90;;
21046;SDS011;10682;50.874;3.656;2023-08-06T05:21:29;20.87;;;5.07;;
21046;SDS011;10682;50.874;3.656;2023-08-06T05:23:56;23.17;;;5.30;;
21046;SDS011;10682;50.874;3.656;2023-08-06T05:26:24;18.63;;;5.87;;
21046;SDS011;10682;50.874;3.656;2023-08-06T05:28:51;18.83;;;5.50;;
21046;SDS011;10682;50.874;3.656;2023-08-06T05:31:18;18.20;;;5.37;;
21046;SDS011;10682;50.874;3.656;2023-08-06T05:33:45;21.77;;;5.83;;
21046;SDS011;10682;50.874;3.656;2023-08-06T05:36:12;18.13;;;5.50;;
21046;SDS011;10682;50.874;3.656;2023-08-06T05:38:39;18.90;;;4.73;;
21046;SDS011;10682;50.874;3.656;2023-08-06T05:41:06;15.43;;;4.47;;
21046;SDS011;10682;50.874;3.656;2023-08-06T05:43:33;14.47;;;4.97;;
21046;SDS011;10682;50.874;3.656;2023-08-06T05:46:00;17.83;;;4.47;;
21046;SDS011;10682;50.874;3.656;2023-08-06T05:48:28;19.52;;;3.88;;
21046;SDS011;10682;50.874;3.656;2023-08-06T05:50:55;14.70;;;3.45;;
21046;SDS011;10682;50.874;3.656;2023-08-06T05:53:22;12.53;;;2.60;;
21046;SDS011;10682;50.874;3.656;2023-08-06T05:55:49;13.67;;;2.87;;
21046;SDS011;10682;50.874;3.656;2023-08-06T05:58:17;8.73;;;2.23;;
21046;SDS011;10682;50.874;3.656;2023-08-06T06:00:46;16.17;;;2.87;;
21046;SDS011;10682;50.874;3.656;2023-08-06T06:03:13;9.70;;;2.00;;
21046;SDS011;10682;50.874;3.656;2023-08-06T06:05:40;15.50;;;2.40;;
21046;SDS011;10682;50.874;3.656;2023-08-06T06:08:07;13.70;;;2.10;;
21046;SDS011;10682;50.874;3.656;2023-08-06T06:10:34;10.63;;;2.30;;
21046;SDS011;10682;50.874;3.656;2023-08-06T06:13:02;8.07;;;1.80;;
21046;SDS011;10682;50.874;3.656;2023-08-06T06:15:29;7.70;;;1.60;;
21046;SDS011;10682;50.874;3.656;2023-08-06T06:17:56;16.50;;;1.60;;
21046;SDS011;10682;50.874;3.656;2023-08-06T06:20:23;13.50;;;2.47;;
21046;SDS011;10682;50.874;3.656;2023-08-06T06:22:50;14.90;;;2.33;;
21046;SDS011;10682;50.874;3.656;2023-08-06T06:25:17;16.00;;;2.17;;
21046;SDS011;10682;50.874;3.656;2023-08-06T06:27:45;12.67;;;1.73;;
21046;SDS011;10682;50.874;3.656;2023-08-06T06:30:12;13.32;;;2.15;;
21046;SDS011;10682;50.874;3.656;2023-08-06T06:32:39;16.48;;;2.00;;
21046;SDS011;10682;50.874;3.656;2023-08-06T06:35:07;10.60;;;1.50;;
21046;SDS011;10682;50.874;3.656;2023-08-06T06:37:34;15.07;;;2.03;;
21046;SDS011;10682;50.874;3.656;2023-08-06T06:40:02;12.10;;;1.63;;
21046;SDS011;10682;50.874;3.656;2023-08-06T06:42:30;10.03;;;1.50;;
21046;SDS011;10682;50.874;3.656;2023-08-06T06:44:57;6.50;;;1.75;;
21046;SDS011;10682;50.874;3.656;2023-08-06T06:47:24;10.93;;;2.03;;
21046;SDS011;10682;50.874;3.656;2023-08-06T06:49:51;13.88;;;2.05;;
21046;SDS011;10682;50.874;3.656;2023-08-06T06:52:18;13.68;;;2.10;;
21046;SDS011;10682;50.874;3.656;2023-08-06T06:54:45;13.65;;;1.92;;
21046;SDS011;10682;50.874;3.656;2023-08-06T06:57:12;13.63;;;2.35;;
21046;SDS011;10682;50.874;3.656;2023-08-06T06:59:39;11.57;;;2.13;;
21046;SDS011;10682;50.874;3.656;2023-08-06T07:02:07;5.93;;;1.88;;
21046;SDS011;10682;50.874;3.656;2023-08-06T07:04:34;12.77;;;2.17;;
21046;SDS011;10682;50.874;3.656;2023-08-06T07:07:01;10.38;;;2.42;;
21046;SDS011;10682;50.874;3.656;2023-08-06T07:09:28;13.73;;;2.38;;
21046;SDS011;10682;50.874;3.656;2023-08-06T07:11:55;15.17;;;2.70;;
21046;SDS011;10682;50.874;3.656;2023-08-06T07:14:24;16.57;;;2.80;;
21046;SDS011;10682;50.874;3.656;2023-08-06T07:16:52;12.60;;;2.80;;
21046;SDS011;10682;50.874;3.656;2023-08-06T07:19:19;13.55;;;2.95;;
21046;SDS011;10682;50.874;3.656;2023-08-06T07:21:47;9.75;;;2.30;;
21046;SDS011;10682;50.874;3.656;2023-08-06T07:24:19;9.20;;;2.00;;
21046;SDS011;10682;50.874;3.656;2023-08-06T07:26:46;11.00;;;2.35;;
21046;SDS011;10682;50.874;3.656;2023-08-06T07:29:13;13.17;;;2.00;;
21046;SDS011;10682;50.874;3.656;2023-08-06T07:31:45;8.90;;;1.90;;
21046;SDS011;10682;50.874;3.656;2023-08-06T07:34:13;9.35;;;2.20;;
21046;SDS011;10682;50.874;3.656;2023-08-06T07:36:40;12.32;;;2.42;;
21046;SDS011;10682;50.874;3.656;2023-08-06T07:39:10;11.27;;;1.90;;
21046;SDS011;10682;50.874;3.656;2023-08-06T07:41:37;10.00;;;1.70;;
21046;SDS011;10682;50.874;3.656;2023-08-06T07:44:04;10.27;;;1.90;;
21046;SDS011;10682;50.874;3.656;2023-08-06T07:46:31;7.80;;;2.20;;
21046;SDS011;10682;50.874;3.656;2023-08-06T07:48:59;13.88;;;2.17;;
21046;SDS011;10682;50.874;3.656;2023-08-06T07:51:26;9.00;;;1.88;;
21046;SDS011;10682;50.874;3.656;2023-08-06T07:53:53;7.15;;;2.05;;
21046;SDS011;10682;50.874;3.656;2023-08-06T07:56:20;8.82;;;2.08;;
21046;SDS011;10682;50.874;3.656;2023-08-06T07:58:47;11.70;;;2.45;;
21046;SDS011;10682;50.874;3.656;2023-08-06T08:01:15;9.48;;;2.03;;
21046;SDS011;10682;50.874;3.656;2023-08-06T08:03:42;11.43;;;2.03;;
21046;SDS011;10682;50.874;3.656;2023-08-06T08:06:09;12.40;;;2.00;;
21046;SDS011;10682;50.874;3.656;2023-08-06T08:08:36;8.55;;;2.33;;
21046;SDS011;10682;50.874;3.656;2023-08-06T08:11:05;12.57;;;2.50;;
21046;SDS011;10682;50.874;3.656;2023-08-06T08:13:33;17.75;;;2.25;;
21046;SDS011;10682;50.874;3.656;2023-08-06T08:16:00;17.45;;;2.55;;
21046;SDS011;10682;50.874;3.656;2023-08-06T08:18:28;6.95;;;1.90;;
21046;SDS011;10682;50.874;3.656;2023-08-06T08:20:57;13.60;;;2.17;;
21046;SDS011;10682;50.874;3.656;2023-08-06T08:23:27;17.20;;;2.40;;
21046;SDS011;10682;50.874;3.656;2023-08-06T08:25:55;11.25;;;2.30;;
21046;SDS011;10682;50.874;3.656;2023-08-06T08:28:22;10.65;;;1.98;;
21046;SDS011;10682;50.874;3.656;2023-08-06T08:30:57;9.90;;;2.22;;
21046;SDS011;10682;50.874;3.656;2023-08-06T08:36:12;14.32;;;2.10;;
21046;SDS011;10682;50.874;3.656;2023-08-06T08:38:39;8.35;;;1.65;;
21046;SDS011;10682;50.874;3.656;2023-08-06T08:41:06;12.13;;;2.33;;
21046;SDS011;10682;50.874;3.656;2023-08-06T08:43:38;17.48;;;2.13;;
21046;SDS011;10682;50.874;3.656;2023-08-06T08:46:06;13.05;;;2.30;;
21046;SDS011;10682;50.874;3.656;2023-08-06T08:48:36;10.15;;;2.20;;
21046;SDS011;10682;50.874;3.656;2023-08-06T08:51:03;8.23;;;2.20;;
21046;SDS011;10682;50.874;3.656;2023-08-06T08:53:32;10.18;;;2.00;;
21046;SDS011;10682;50.874;3.656;2023-08-06T08:56:02;12.43;;;1.92;;
21046;SDS011;10682;50.874;3.656;2023-08-06T08:58:31;8.95;;;1.98;;
21046;SDS011;10682;50.874;3.656;2023-08-06T09:00:59;7.00;;;1.70;;
21046;SDS011;10682;50.874;3.656;2023-08-06T09:03:27;10.25;;;2.00;;
21046;SDS011;10682;50.874;3.656;2023-08-06T09:05:56;7.22;;;1.90;;
21046;SDS011;10682;50.874;3.656;2023-08-06T09:08:27;10.13;;;1.85;;
21046;SDS011;10682;50.874;3.656;2023-08-06T09:11:01;8.77;;;1.90;;
21046;SDS011;10682;50.874;3.656;2023-08-06T09:13:29;9.02;;;1.80;;
21046;SDS011;10682;50.874;3.656;2023-08-06T09:15:56;9.75;;;1.90;;
21046;SDS011;10682;50.874;3.656;2023-08-06T09:18:26;11.95;;;1.92;;
21046;SDS011;10682;50.874;3.656;2023-08-06T09:20:56;8.50;;;1.90;;
21046;SDS011;10682;50.874;3.656;2023-08-06T09:23:31;7.85;;;1.70;;
21046;SDS011;10682;50.874;3.656;2023-08-06T09:25:59;12.75;;;2.03;;
21046;SDS011;10682;50.874;3.656;2023-08-06T09:28:38;8.80;;;1.92;;
21046;SDS011;10682;50.874;3.656;2023-08-06T09:31:08;14.07;;;2.22;;
21046;SDS011;10682;50.874;3.656;2023-08-06T09:33:37;15.02;;;2.30;;
21046;SDS011;10682;50.874;3.656;2023-08-06T09:36:08;7.43;;;1.98;;
21046;SDS011;10682;50.874;3.656;2023-08-06T09:38:39;8.25;;;1.73;;
21046;SDS011;10682;50.874;3.656;2023-08-06T09:41:07;9.23;;;2.08;;
21046;SDS011;10682;50.874;3.656;2023-08-06T09:43:44;9.23;;;2.22;;
21046;SDS011;10682;50.874;3.656;2023-08-06T09:46:14;13.23;;;2.25;;
21046;SDS011;10682;50.874;3.656;2023-08-06T09:48:46;10.82;;;2.33;;
21046;SDS011;10682;50.874;3.656;2023-08-06T09:51:13;10.60;;;2.45;;
21046;SDS011;10682;50.874;3.656;2023-08-06T09:53:41;10.20;;;1.95;;
21046;SDS011;10682;50.874;3.656;2023-08-06T09:56:09;9.13;;;1.92;;
21046;SDS011;10682;50.874;3.656;2023-08-06T09:58:38;11.85;;;2.97;;
21046;SDS011;10682;50.874;3.656;2023-08-06T10:01:05;7.05;;;2.13;;
21046;SDS011;10682;50.874;3.656;2023-08-06T10:03:33;10.35;;;2.28;;
21046;SDS011;10682;50.874;3.656;2023-08-06T10:06:02;11.90;;;2.80;;
21046;SDS011;10682;50.874;3.656;2023-08-06T10:08:33;12.25;;;2.50;;
21046;SDS011;10682;50.874;3.656;2023-08-06T10:11:05;13.35;;;2.40;;
21046;SDS011;10682;50.874;3.656;2023-08-06T10:13:33;8.18;;;2.22;;
21046;SDS011;10682;50.874;3.656;2023-08-06T10:16:01;16.23;;;3.40;;
21046;SDS011;10682;50.874;3.656;2023-08-06T10:18:32;11.32;;;2.20;;
21046;SDS011;10682;50.874;3.656;2023-08-06T10:21:07;9.20;;;2.38;;
21046;SDS011;10682;50.874;3.656;2023-08-06T10:26:36;7.45;;;2.20;;
21046;SDS011;10682;50.874;3.656;2023-08-06T10:32:05;15.05;;;2.60;;
21046;SDS011;10682;50.874;3.656;2023-08-06T10:37:24;10.10;;;2.53;;
21046;SDS011;10682;50.874;3.656;2023-08-06T10:40:05;9.75;;;2.08;;
21046;SDS011;10682;50.874;3.656;2023-08-06T10:42:34;14.55;;;2.65;;
21046;SDS011;10682;50.874;3.656;2023-08-06T10:45:14;8.27;;;1.70;;
21046;SDS011;10682;50.874;3.656;2023-08-06T10:47:43;13.20;;;2.10;;
21046;SDS011;10682;50.874;3.656;2023-08-06T10:50:12;7.00;;;1.63;;
21046;SDS011;10682;50.874;3.656;2023-08-06T10:52:43;8.82;;;1.80;;
21046;SDS011;10682;50.874;3.656;2023-08-06T10:55:11;8.25;;;2.20;;
21046;SDS011;10682;50.874;3.656;2023-08-06T10:57:39;9.90;;;2.20;;
21046;SDS011;10682;50.874;3.656;2023-08-06T11:00:07;7.05;;;2.00;;
21046;SDS011;10682;50.874;3.656;2023-08-06T11:02:42;11.65;;;2.55;;
21046;SDS011;10682;50.874;3.656;2023-08-06T11:05:11;15.82;;;2.00;;
21046;SDS011;10682;50.874;3.656;2023-08-06T11:07:38;10.25;;;2.50;;
21046;SDS011;10682;50.874;3.656;2023-08-06T11:10:09;11.15;;;2.45;;
21046;SDS011;10682;50.874;3.656;2023-08-06T11:12:40;8.23;;;2.05;;
21046;SDS011;10682;50.874;3.656;2023-08-06T11:15:07;13.32;;;2.70;;
21046;SDS011;10682;50.874;3.656;2023-08-06T11:17:36;10.57;;;2.35;;
21046;SDS011;10682;50.874;3.656;2023-08-06T11:20:03;10.50;;;2.45;;
21046;SDS011;10682;50.874;3.656;2023-08-06T11:22:31;13.15;;;2.70;;
21046;SDS011;10682;50.874;3.656;2023-08-06T11:25:00;10.65;;;2.25;;
21046;SDS011;10682;50.874;3.656;2023-08-06T11:27:27;12.57;;;2.35;;
21046;SDS011;10682;50.874;3.656;2023-08-06T11:29:55;10.93;;;2.63;;
21046;SDS011;10682;50.874;3.656;2023-08-06T11:32:22;11.30;;;3.05;;
21046;SDS011;10682;50.874;3.656;2023-08-06T11:34:49;15.82;;;2.80;;
21046;SDS011;10682;50.874;3.656;2023-08-06T11:37:20;9.57;;;2.22;;
21046;SDS011;10682;50.874;3.656;2023-08-06T11:39:49;13.73;;;2.40;;
21046;SDS011;10682;50.874;3.656;2023-08-06T11:42:16;9.82;;;2.42;;
21046;SDS011;10682;50.874;3.656;2023-08-06T11:44:44;9.90;;;2.20;;
21046;SDS011;10682;50.874;3.656;2023-08-06T11:47:15;11.60;;;2.33;;
21046;SDS011;10682;50.874;3.656;2023-08-06T11:49:45;7.20;;;2.38;;
21046;SDS011;10682;50.874;3.656;2023-08-06T11:54:47;9.70;;;2.40;;
21046;SDS011;10682;50.874;3.656;2023-08-06T11:57:30;9.25;;;2.45;;
21046;SDS011;10682;50.874;3.656;2023-08-06T12:00:02;12.85;;;2.40;;
21046;SDS011;10682;50.874;3.656;2023-08-06T12:02:40;7.43;;;2.13;;
21046;SDS011;10682;50.874;3.656;2023-08-06T12:05:16;11.98;;;2.75;;
21046;SDS011;10682;50.874;3.656;2023-08-06T12:07:54;8.98;;;2.70;;
21046;SDS011;10682;50.874;3.656;2023-08-06T12:10:29;10.57;;;3.30;;
21046;SDS011;10682;50.874;3.656;2023-08-06T12:12:57;11.52;;;2.50;;
21046;SDS011;10682;50.874;3.656;2023-08-06T12:15:25;10.13;;;2.38;;
21046;SDS011;10682;50.874;3.656;2023-08-06T12:17:52;12.57;;;2.72;;
21046;SDS011;10682;50.874;3.656;2023-08-06T12:20:19;8.57;;;2.30;;
21046;SDS011;10682;50.874;3.656;2023-08-06T12:22:46;7.65;;;2.75;;
21046;SDS011;10682;50.874;3.656;2023-08-06T12:25:13;8.18;;;2.20;;
21046;SDS011;10682;50.874;3.656;2023-08-06T12:27:41;11.77;;;1.92;;
21046;SDS011;10682;50.874;3.656;2023-08-06T12:30:10;8.97;;;1.80;;
21046;SDS011;10682;50.874;3.656;2023-08-06T12:32:39;10.10;;;2.10;;
21046;SDS011;10682;50.874;3.656;2023-08-06T12:35:07;8.43;;;1.55;;
21046;SDS011;10682;50.874;3.656;2023-08-06T12:37:38;6.55;;;1.77;;
21046;SDS011;10682;50.874;3.656;2023-08-06T12:40:08;8.93;;;2.28;;
21046;SDS011;10682;50.874;3.656;2023-08-06T12:42:55;7.47;;;1.92;;
21046;SDS011;10682;50.874;3.656;2023-08-06T12:45:22;9.82;;;1.90;;
21046;SDS011;10682;50.874;3.656;2023-08-06T12:47:49;8.07;;;1.80;;
21046;SDS011;10682;50.874;3.656;2023-08-06T12:50:16;9.25;;;1.80;;
21046;SDS011;10682;50.874;3.656;2023-08-06T12:52:44;10.82;;;2.30;;
21046;SDS011;10682;50.874;3.656;2023-08-06T12:55:11;9.25;;;1.60;;
21046;SDS011;10682;50.874;3.656;2023-08-06T12:57:39;9.10;;;1.70;;
21046;SDS011;10682;50.874;3.656;2023-08-06T13:00:23;8.95;;;2.00;;
21046;SDS011;10682;50.874;3.656;2023-08-06T13:02:51;6.20;;;1.70;;
21046;SDS011;10682;50.874;3.656;2023-08-06T13:05:18;5.97;;;1.40;;
21046;SDS011;10682;50.874;3.656;2023-08-06T13:07:46;8.02;;;1.70;;
21046;SDS011;10682;50.874;3.656;2023-08-06T13:10:13;5.05;;;1.50;;
21046;SDS011;10682;50.874;3.656;2023-08-06T13:12:41;9.48;;;2.08;;
21046;SDS011;10682;50.874;3.656;2023-08-06T13:15:08;9.20;;;1.80;;
21046;SDS011;10682;50.874;3.656;2023-08-06T13:17:36;6.70;;;1.40;;
21046;SDS011;10682;50.874;3.656;2023-08-06T13:20:03;12.27;;;2.05;;
21046;SDS011;10682;50.874;3.656;2023-08-06T13:22:32;7.05;;;1.83;;
21046;SDS011;10682;50.874;3.656;2023-08-06T13:24:59;7.97;;;1.48;;
21046;SDS011;10682;50.874;3.656;2023-08-06T13:27:26;6.03;;;1.60;;
21046;SDS011;10682;50.874;3.656;2023-08-06T13:29:53;10.60;;;1.90;;
21046;SDS011;10682;50.874;3.656;2023-08-06T13:32:21;9.63;;;2.08;;
21046;SDS011;10682;50.874;3.656;2023-08-06T13:34:48;8.35;;;1.83;;
21046;SDS011;10682;50.874;3.656;2023-08-06T13:37:15;13.73;;;2.17;;
21046;SDS011;10682;50.874;3.656;2023-08-06T13:39:42;9.32;;;1.90;;
21046;SDS011;10682;50.874;3.656;2023-08-06T13:42:09;7.45;;;1.67;;
21046;SDS011;10682;50.874;3.656;2023-08-06T13:44:36;11.40;;;1.95;;
21046;SDS011;10682;50.874;3.656;2023-08-06T13:47:03;10.88;;;1.73;;
21046;SDS011;10682;50.874;3.656;2023-08-06T13:49:30;9.40;;;1.83;;
21046;SDS011;10682;50.874;3.656;2023-08-06T13:51:57;9.23;;;1.83;;
21046;SDS011;10682;50.874;3.656;2023-08-06T13:54:37;8.23;;;1.80;;
21046;SDS011;10682;50.874;3.656;2023-08-06T13:57:04;11.40;;;2.15;;
21046;SDS011;10682;50.874;3.656;2023-08-06T13:59:31;11.80;;;2.10;;
21046;SDS011;10682;50.874;3.656;2023-08-06T14:01:58;8.52;;;1.98;;
21046;SDS011;10682;50.874;3.656;2023-08-06T14:04:26;11.05;;;2.25;;
21046;SDS011;10682;50.874;3.656;2023-08-06T14:06:53;8.95;;;2.10;;
21046;SDS011;10682;50.874;3.656;2023-08-06T14:09:31;6.32;;;2.03;;
21046;SDS011;10682;50.874;3.656;2023-08-06T14:14:50;6.07;;;2.30;;
21046;SDS011;10682;50.874;3.656;2023-08-06T14:17:17;14.40;;;2.60;;
21046;SDS011;10682;50.874;3.656;2023-08-06T14:19:44;11.23;;;2.50;;
21046;SDS011;10682;50.874;3.656;2023-08-06T14:22:13;9.48;;;2.47;;
21046;SDS011;10682;50.874;3.656;2023-08-06T14:24:40;10.52;;;2.40;;
21046;SDS011;10682;50.874;3.656;2023-08-06T14:27:08;10.02;;;2.15;;
21046;SDS011;10682;50.874;3.656;2023-08-06T14:29:35;11.07;;;2.45;;
21046;SDS011;10682;50.874;3.656;2023-08-06T14:32:02;9.10;;;2.17;;
21046;SDS011;10682;50.874;3.656;2023-08-06T14:34:29;12.57;;;2.78;;
21046;SDS011;10682;50.874;3.656;2023-08-06T14:36:56;10.70;;;2.40;;
21046;SDS011;10682;50.874;3.656;2023-08-06T14:39:25;11.50;;;2.53;;
21046;SDS011;10682;50.874;3.656;2023-08-06T14:41:52;12.18;;;2.38;;
21046;SDS011;10682;50.874;3.656;2023-08-06T14:44:19;7.20;;;1.92;;
21046;SDS011;10682;50.874;3.656;2023-08-06T14:46:46;12.20;;;2.33;;
21046;SDS011;10682;50.874;3.656;2023-08-06T14:49:13;9.25;;;2.15;;
21046;SDS011;10682;50.874;3.656;2023-08-06T14:51:41;7.40;;;2.00;;
21046;SDS011;10682;50.874;3.656;2023-08-06T14:54:08;4.90;;;1.77;;
21046;SDS011;10682;50.874;3.656;2023-08-06T14:56:35;8.80;;;2.10;;
21046;SDS011;10682;50.874;3.656;2023-08-06T14:59:02;8.48;;;2.20;;
21046;SDS011;10682;50.874;3.656;2023-08-06T15:01:29;13.45;;;2.15;;
21046;SDS011;10682;50.874;3.656;2023-08-06T15:03:56;8.02;;;1.80;;
21046;SDS011;10682;50.874;3.656;2023-08-06T15:06:23;10.32;;;2.28;;
21046;SDS011;10682;50.874;3.656;2023-08-06T15:08:51;5.53;;;1.65;;
21046;SDS011;10682;50.874;3.656;2023-08-06T15:11:20;9.60;;;2.50;;
21046;SDS011;10682;50.874;3.656;2023-08-06T15:13:47;4.18;;;1.60;;